WXM80 ListenWXM80 Stop

You find our weather info also at:

UK Metoffice

WeatherCloud

Weather Underground

Northeastern Weather Network

AWEKAS

Citizen Weather Observer Program (CWOP)

HAMweather, WeatherForYou, PWS Weather


Weather Underground History page Text

Daily Summary for April 13, 2017 Units:  Metric    English   Both
« Previous Day
Next Day »
Daily Weekly Monthly Yearly Custom
  High: Low: Average:
Temperature: 17.8 °C 6.5 °C 12.1 °C
Dew Point: 9.7 °C 1.9 °C 4.5 °C
Humidity: 86 % 37 % 62 %
Wind Speed: 12.2 km/h 0 km/h 4 km/h
Wind Gust: 18.5 km/h - -
Wind:- - SW
Pressure: 1027.3 hPa 1022.9 hPa -
Precipitation: 0 mm    
Historical Graphs
 
 
Tabular Data for April 13, 2017
Time Temperature Dew Point Pressure Wind Wind Speed Wind Gust Humidity Rainfall Rate (Hourly)
00:01 12.3 °C 9.7 °C 1022.9 hPa NNW 7.7 km/h 11.1 km/h 84 % 0 mm
00:06 12.3 °C 9.5 °C 1023.2 hPa North 5 km/h 13 km/h 83 % 0 mm
00:11 12.3 °C 9.5 °C 1023.2 hPa NE 7.2 km/h 13 km/h 83 % 0 mm
00:16 12.3 °C 9.3 °C 1023.2 hPa North 5.8 km/h 13 km/h 82 % 0 mm
00:21 12.2 °C 8.9 °C 1023.2 hPa NNE 10.9 km/h 18.5 km/h 80 % 0 mm
00:26 12.2 °C 8.7 °C 1023.6 hPa North 9 km/h 18.5 km/h 79 % 0 mm
00:31 12.3 °C 8.6 °C 1023.6 hPa North 10.8 km/h 14.8 km/h 78 % 0 mm
00:36 12.3 °C 8.6 °C 1023.9 hPa North 3.9 km/h 5.6 km/h 78 % 0 mm
00:41 12.2 °C 8.3 °C 1023.9 hPa NNE 8.5 km/h 14.8 km/h 77 % 0 mm
00:46 12.1 °C 7.9 °C 1023.9 hPa NNE 2.9 km/h 9.3 km/h 76 % 0 mm
00:51 11.9 °C 7.8 °C 1024.3 hPa NW 0.5 km/h 5.6 km/h 76 % 0 mm
00:56 11.8 °C 7.7 °C 1024.3 hPa Calm   1.6 km/h 76 % 0 mm
01:01 11.7 °C 7.6 °C 1024.3 hPa North 3.7 km/h 9.3 km/h 76 % 0 mm
01:06 11.6 °C 7.4 °C 1024.3 hPa NE 1.6 km/h 3.7 km/h 76 % 0 mm
01:11 11.4 °C 7.1 °C 1024.3 hPa NE 1.3 km/h 5.6 km/h 75 % 0 mm
01:16 11.2 °C 6.9 °C 1024.3 hPa SSE 2.4 km/h 6.4 km/h 75 % 0 mm
01:21 11 °C 6.9 °C 1024.3 hPa NW 2.4 km/h 12.9 km/h 76 % 0 mm
01:27 10.8 °C 6.5 °C 1024.3 hPa NNW 6.6 km/h 9.7 km/h 75 % 0 mm
01:32 10.6 °C 6.6 °C 1024.3 hPa North 8.7 km/h 16.7 km/h 76 % 0 mm
01:37 10.5 °C 6.4 °C 1024.3 hPa North 5.1 km/h 8 km/h 76 % 0 mm
01:42 10.4 °C 6.3 °C 1024.3 hPa North 5 km/h 18.5 km/h 76 % 0 mm
01:47 10.3 °C 6.3 °C 1024.3 hPa NNE 8.5 km/h 13 km/h 76 % 0 mm
01:52 10.3 °C 6.2 °C 1024.3 hPa NNE 5.5 km/h 9.3 km/h 76 % 0 mm
01:57 10.2 °C 6.2 °C 1024.3 hPa NE 12.2 km/h 18.5 km/h 76 % 0 mm
02:02 10.2 °C 6.1 °C 1024.3 hPa NNW 9.7 km/h 13 km/h 76 % 0 mm
02:07 10.1 °C 6.1 °C 1024.3 hPa NNE 10.5 km/h 13 km/h 76 % 0 mm
02:12 10.1 °C 6 °C 1024.3 hPa NNE 8.4 km/h 11.1 km/h 76 % 0 mm
02:17 10 °C 5.9 °C 1024.3 hPa NNE 5.6 km/h 13 km/h 76 % 0 mm
02:22 9.9 °C 5.9 °C 1024.3 hPa North 5.6 km/h 9.3 km/h 76 % 0 mm
02:27 9.8 °C 5.8 °C 1024.3 hPa North 3.7 km/h 11.1 km/h 76 % 0 mm
02:32 9.8 °C 5.9 °C 1024.3 hPa NNE 7.6 km/h 9.3 km/h 77 % 0 mm
02:37 9.7 °C 5.8 °C 1024.3 hPa North 5.1 km/h 13 km/h 77 % 0 mm
02:39 9.6 °C 5.8 °C 1024.3 hPa North 4.5 km/h 11.1 km/h 77 % 0 mm
02:44 9.6 °C 5.7 °C 1024.3 hPa NNE 7.9 km/h 11.1 km/h 77 % 0 mm
02:49 9.5 °C 5.5 °C 1024.3 hPa North 5.8 km/h 11.1 km/h 76 % 0 mm
02:54 9.4 °C 5.6 °C 1024.3 hPa NNE 6.8 km/h 9.3 km/h 77 % 0 mm
02:56 9.4 °C 5.6 °C 1024.3 hPa NNE 6.1 km/h 9.3 km/h 77 % 0 mm
03:01 9.4 °C 5.6 °C 1024.6 hPa NNE 7.6 km/h 9.7 km/h 77 % 0 mm
03:06 9.3 °C 5.6 °C 1024.6 hPa NNE 8.7 km/h 13 km/h 78 % 0 mm
03:11 9.2 °C 5.6 °C 1024.6 hPa NNE 6.1 km/h 11.1 km/h 78 % 0 mm
03:16 9.2 °C 5.6 °C 1024.6 hPa North 5.8 km/h 9.3 km/h 78 % 0 mm
03:21 9.1 °C 5.5 °C 1024.6 hPa North 5.3 km/h 13 km/h 78 % 0 mm
03:26 9.1 °C 5.4 °C 1024.6 hPa NNE 3.1 km/h 5.6 km/h 78 % 0 mm
03:31 8.9 °C 5.5 °C 1024.6 hPa NNW 3.2 km/h 7.4 km/h 79 % 0 mm
03:36 8.8 °C 5.4 °C 1024.6 hPa North 4.2 km/h 9.7 km/h 79 % 0 mm
03:41 8.8 °C 5.3 °C 1024.6 hPa NNE 3.2 km/h 7.4 km/h 79 % 0 mm
03:46 8.7 °C 5.3 °C 1024.6 hPa North 1.9 km/h 3.7 km/h 79 % 0 mm
03:51 8.7 °C 5.2 °C 1024.6 hPa Calm   3.7 km/h 79 % 0 mm
03:56 8.6 °C 5.3 °C 1024.6 hPa North 0.5 km/h   80 % 0 mm
04:01 8.6 °C 5.5 °C 1024.6 hPa North 0.2 km/h 3.7 km/h 81 % 0 mm
04:06 8.4 °C 5.4 °C 1024.6 hPa North 0.3 km/h 1.9 km/h 81 % 0 mm
04:11 8.3 °C 5.3 °C 1024.6 hPa Calm     81 % 0 mm
04:16 8.3 °C 5.4 °C 1024.6 hPa North 0.2 km/h 1.9 km/h 82 % 0 mm
04:21 8.2 °C 5.3 °C 1024.6 hPa Calm     82 % 0 mm
04:26 8 °C 5.3 °C 1024.6 hPa Calm     83 % 0 mm
04:31 7.9 °C 5.2 °C 1024.6 hPa Calm   1.9 km/h 83 % 0 mm
04:36 7.8 °C 5.1 °C 1024.9 hPa Calm     83 % 0 mm
04:41 7.7 °C 4.9 °C 1024.9 hPa Calm     83 % 0 mm
04:46 7.6 °C 5 °C 1024.9 hPa North 0.5 km/h 3.7 km/h 84 % 0 mm
04:51 7.5 °C 4.8 °C 1024.9 hPa Calm     83 % 0 mm
04:56 7.4 °C 4.8 °C 1024.9 hPa NNW 1.8 km/h 5.6 km/h 84 % 0 mm
04:57 7.3 °C 4.8 °C 1024.9 hPa NNW 3.4 km/h 5.6 km/h 84 % 0 mm
05:02 7.3 °C 4.8 °C 1024.9 hPa Calm   1.9 km/h 84 % 0 mm
05:07 7.2 °C 4.7 °C 1025.3 hPa Calm     84 % 0 mm
05:12 7.1 °C 4.8 °C 1025.3 hPa Calm     85 % 0 mm
05:17 7 °C 4.7 °C 1025.3 hPa NNW 0.3 km/h 1.6 km/h 85 % 0 mm
05:22 6.9 °C 4.6 °C 1025.3 hPa Calm   1.9 km/h 85 % 0 mm
05:27 6.8 °C 4.7 °C 1025.3 hPa NNW 0.6 km/h 1.9 km/h 86 % 0 mm
05:32 6.8 °C 4.6 °C 1025.3 hPa NW 0.2 km/h 1.9 km/h 86 % 0 mm
05:37 6.7 °C 4.3 °C 1025.3 hPa WSW 0.3 km/h 3.2 km/h 85 % 0 mm
05:42 6.6 °C 4.3 °C 1025.3 hPa WNW 0.3 km/h 1.9 km/h 85 % 0 mm
05:47 6.6 °C 4.1 °C 1025.3 hPa WNW 2.1 km/h 5.6 km/h 84 % 0 mm
05:52 6.5 °C 3.8 °C 1025.3 hPa WNW 1.6 km/h 5.6 km/h 83 % 0 mm
05:57 6.5 °C 3.5 °C 1025.3 hPa WNW 1.3 km/h 3.7 km/h 81 % 0 mm
06:03 6.6 °C 3.5 °C 1025.3 hPa WNW 3.4 km/h 5.6 km/h 81 % 0 mm
06:08 6.7 °C 3.4 °C 1025.3 hPa NW 3.9 km/h 9.3 km/h 80 % 0 mm
06:13 6.8 °C 3.4 °C 1025.3 hPa West 3.4 km/h 6.4 km/h 79 % 0 mm
06:18 6.8 °C 3.3 °C 1025.3 hPa WNW 4.7 km/h 11.3 km/h 78 % 0 mm
06:23 7 °C 3.2 °C 1025.6 hPa WNW 2.7 km/h 5.6 km/h 77 % 0 mm
06:28 7.1 °C 3.2 °C 1025.6 hPa West 5.3 km/h 5.6 km/h 76 % 0 mm
06:33 7.2 °C 3.3 °C 1025.6 hPa West 6.6 km/h 11.1 km/h 76 % 0 mm
06:38 7.3 °C 3.2 °C 1026 hPa WNW 2.9 km/h 7.4 km/h 75 % 0 mm
06:43 7.4 °C 3.3 °C 1025.6 hPa WNW 2.3 km/h 5.6 km/h 75 % 0 mm
06:48 7.5 °C 3.3 °C 1026 hPa West 2.3 km/h 5.6 km/h 75 % 0 mm
06:53 7.7 °C 3.3 °C 1026 hPa WSW 4.5 km/h 5.6 km/h 74 % 0 mm
06:58 7.8 °C 3.4 °C 1026 hPa WNW 4.3 km/h 5.6 km/h 74 % 0 mm
07:03 7.9 °C 3.4 °C 1026 hPa WSW 6.3 km/h 9.7 km/h 73 % 0 mm
07:08 8.2 °C 3.7 °C 1026.3 hPa West 5.5 km/h 11.1 km/h 73 % 0 mm
07:13 8.3 °C 3.4 °C 1026 hPa West 3.7 km/h 11.1 km/h 71 % 0 mm
07:18 8.6 °C 3.6 °C 1026.3 hPa WNW 3.9 km/h 11.1 km/h 71 % 0 mm
07:23 8.7 °C 3.6 °C 1026.3 hPa WNW 10.1 km/h 14.8 km/h 70 % 0 mm
07:28 8.9 °C 3.7 °C 1026.3 hPa WNW 5.6 km/h 14.8 km/h 70 % 0 mm
07:33 9 °C 3.8 °C 1026.3 hPa WNW 6.1 km/h 13 km/h 70 % 0 mm
07:38 9.2 °C 4.2 °C 1026.3 hPa WNW 6 km/h 14.8 km/h 71 % 0 mm
07:43 9.3 °C 4.1 °C 1026.3 hPa WNW 2.6 km/h 5.6 km/h 70 % 0 mm
07:48 9.4 °C 4.2 °C 1026.6 hPa WNW 2.4 km/h 6.4 km/h 70 % 0 mm
07:53 9.5 °C 4.3 °C 1026.6 hPa NW 3.4 km/h 5.6 km/h 70 % 0 mm
07:58 9.7 °C 4.4 °C 1026.6 hPa NW 6 km/h 9.3 km/h 70 % 0 mm
08:04 9.7 °C 4.4 °C 1026.6 hPa WNW 6 km/h 9.3 km/h 70 % 0 mm
08:09 9.7 °C 4.5 °C 1026.6 hPa NW 5.8 km/h 11.1 km/h 70 % 0 mm
08:14 9.7 °C 4.4 °C 1026.6 hPa WNW 3.9 km/h 11.1 km/h 70 % 0 mm
08:19 9.7 °C 4.7 °C 1026.6 hPa NW 7.9 km/h 11.3 km/h 71 % 0 mm
08:24 9.6 °C 4.4 °C 1026.6 hPa NW 9.7 km/h 13 km/h 70 % 0 mm
08:29 9.6 °C 4.3 °C 1026.3 hPa NW 4 km/h 9.3 km/h 70 % 0 mm
08:34 9.6 °C 4.3 °C 1026.6 hPa NW 4.2 km/h 6.4 km/h 70 % 0 mm
08:39 9.6 °C 4.4 °C 1026.6 hPa NW 4.5 km/h 14.8 km/h 70 % 0 mm
08:44 9.7 °C 4.8 °C 1026.6 hPa NW 5 km/h 11.1 km/h 72 % 0 mm
08:49 9.8 °C 5 °C 1026.6 hPa West 4 km/h 8 km/h 72 % 0 mm
08:54 10 °C 4.8 °C 1026.6 hPa WNW 6.1 km/h 9.3 km/h 70 % 0 mm
08:59 10.1 °C 4.6 °C 1026.6 hPa NW 6 km/h 13 km/h 69 % 0 mm
09:04 10.2 °C 4.5 °C 1026.6 hPa NNW 6.6 km/h 14.5 km/h 68 % 0 mm
09:09 10.3 °C 4.4 °C 1026.6 hPa North 5.5 km/h 13 km/h 67 % 0 mm
09:14 10.5 °C 5.1 °C 1026.3 hPa NW 5.5 km/h 13 km/h 69 % 0 mm
09:19 10.7 °C 5 °C 1026.6 hPa NW 3.9 km/h 8 km/h 68 % 0 mm
09:24 10.8 °C 4.7 °C 1026.6 hPa NNW 4.8 km/h 7.4 km/h 66 % 0 mm
09:29 10.8 °C 4.9 °C 1026.6 hPa North 4 km/h 5.6 km/h 67 % 0 mm
09:34 10.9 °C 4.8 °C 1026.6 hPa NW 7.2 km/h 9.3 km/h 66 % 0 mm
09:36 10.9 °C 5.3 °C 1026.6 hPa NW 3.5 km/h 7.4 km/h 68 % 0 mm
09:41 11.1 °C 4.9 °C 1026.6 hPa NW 3.7 km/h 11.1 km/h 66 % 0 mm
09:46 11.1 °C 4.9 °C 1026.6 hPa NNW 4.7 km/h 13 km/h 66 % 0 mm
09:51 11.2 °C 5.1 °C 1026.6 hPa NNW 6.8 km/h 9.3 km/h 66 % 0 mm
09:56 11.2 °C 5.3 °C 1026.6 hPa North 6.1 km/h 11.1 km/h 67 % 0 mm
10:01 11.2 °C 5.1 °C 1026.6 hPa NNW 1.8 km/h 5.6 km/h 66 % 0 mm
10:06 11.2 °C 4.9 °C 1027 hPa NW 4 km/h 7.4 km/h 65 % 0 mm
10:12 11.2 °C 4.8 °C 1026.6 hPa WNW 6.6 km/h 11.1 km/h 65 % 0 mm
10:17 11.1 °C 4.7 °C 1026.6 hPa NW 4 km/h 9.3 km/h 65 % 0 mm
10:22 11.1 °C 5 °C 1026.6 hPa NW 1.6 km/h 9.3 km/h 66 % 0 mm
10:27 11.2 °C 4.8 °C 1026.6 hPa WNW 3.2 km/h 5.6 km/h 65 % 0 mm
10:32 11.2 °C 4.2 °C 1026.6 hPa NW 4.2 km/h 7.4 km/h 62 % 0 mm
10:37 11.3 °C 4 °C 1027 hPa NW 5.1 km/h 7.4 km/h 61 % 0 mm
10:42 11.3 °C 3.8 °C 1026.6 hPa WNW 5.1 km/h 11.1 km/h 60 % 0 mm
10:47 11.3 °C 4 °C 1026.6 hPa North 5.5 km/h 9.3 km/h 61 % 0 mm
10:52 11.4 °C 4.7 °C 1026.6 hPa NW 3.5 km/h 8 km/h 63 % 0 mm
10:57 11.6 °C 4.3 °C 1026.6 hPa WNW 4.5 km/h 7.4 km/h 61 % 0 mm
11:02 11.8 °C 4.3 °C 1026.6 hPa North 2.1 km/h 5.6 km/h 60 % 0 mm
11:07 11.8 °C 3.8 °C 1026.6 hPa NNW 3.4 km/h 9.3 km/h 58 % 0 mm
11:12 11.8 °C 4.1 °C 1026.6 hPa NW 4.3 km/h 5.6 km/h 59 % 0 mm
11:17 12.1 °C 5 °C 1026.6 hPa NW 2.3 km/h 7.4 km/h 62 % 0 mm
11:22 12.4 °C 4.1 °C 1026.6 hPa NW 6.1 km/h 11.3 km/h 57 % 0 mm
11:27 12.4 °C 4.1 °C 1026.6 hPa NNW 4.2 km/h 5.6 km/h 57 % 0 mm
11:32 12.4 °C 4.2 °C 1026.6 hPa NNW 4.3 km/h 11.1 km/h 57 % 0 mm
11:37 12.6 °C 4.6 °C 1026.6 hPa NNW 5.3 km/h 9.3 km/h 58 % 0 mm
11:42 12.8 °C 4.8 °C 1026.6 hPa WNW 4.7 km/h 11.1 km/h 58 % 0 mm
11:47 13.3 °C 4.9 °C 1026.6 hPa NNW 7.6 km/h 13 km/h 57 % 0 mm
11:52 13.5 °C 4.6 °C 1026.3 hPa WNW 5.3 km/h 11.1 km/h 55 % 0 mm
11:57 13.8 °C 5.2 °C 1026.3 hPa WNW 2.4 km/h 11.3 km/h 56 % 0 mm
12:02 13.9 °C 5.1 °C 1026 hPa NW 3.2 km/h 5.6 km/h 55 % 0 mm
12:10 14.1 °C 3.8 °C 1026 hPa WNW 6.8 km/h 9.7 km/h 50 % 0 mm
12:15 14 °C 3.2 °C 1026 hPa WNW 7.1 km/h 11.3 km/h 48 % 0 mm
12:20 14.2 °C 5 °C 1025.6 hPa NW 3.5 km/h 5.6 km/h 54 % 0 mm
12:25 14.3 °C 4.1 °C 1025.6 hPa NNE 4.7 km/h 5.6 km/h 50 % 0 mm
12:30 14.7 °C 4.6 °C 1025.6 hPa North 4.3 km/h 7.4 km/h 51 % 0 mm
12:35 14.9 °C 4.9 °C 1026 hPa North 5.3 km/h 8 km/h 51 % 0 mm
12:40 15.1 °C 4.1 °C 1026 hPa NNW 3.7 km/h 5.6 km/h 48 % 0 mm
12:45 15.1 °C 4.4 °C 1026 hPa NNE 5 km/h 11.1 km/h 49 % 0 mm
12:50 15.4 °C 4.1 °C 1026 hPa North 6.1 km/h 11.1 km/h 47 % 0 mm
12:55 15.4 °C 3.9 °C 1026 hPa NNW 6.6 km/h 11.1 km/h 46 % 0 mm
13:00 15.5 °C 4.2 °C 1025.6 hPa NNW 9.2 km/h 13 km/h 47 % 0 mm
13:05 15.7 °C 4.7 °C 1025.6 hPa NNW 6 km/h 9.7 km/h 48 % 0 mm
13:10 15.7 °C 3.8 °C 1025.6 hPa NNW 6.3 km/h 11.1 km/h 45 % 0 mm
13:15 15.8 °C 4.5 °C 1025.6 hPa WNW 4.2 km/h 6.4 km/h 47 % 0 mm
13:20 16 °C 4.7 °C 1025.6 hPa WNW 4.3 km/h 6.4 km/h 47 % 0 mm
13:25 16.1 °C 3.5 °C 1025.6 hPa North 5.5 km/h 11.1 km/h 43 % 0 mm
13:30 16.3 °C 4.3 °C 1025.6 hPa NW 3.7 km/h 9.3 km/h 45 % 0 mm
13:35 16.4 °C 3.8 °C 1025.6 hPa NW 1.8 km/h 5.6 km/h 43 % 0 mm
13:41 16.7 °C 4.4 °C 1025.6 hPa NW 6.6 km/h 9.3 km/h 44 % 0 mm
13:46 16.9 °C 4.6 °C 1025.6 hPa NNW 5.8 km/h 11.1 km/h 44 % 0 mm
13:51 17.1 °C 4.1 °C 1025.6 hPa NNW 4.7 km/h 9.3 km/h 42 % 0 mm
13:56 17.2 °C 4.5 °C 1025.6 hPa North 6.8 km/h 9.3 km/h 43 % 0 mm
14:01 17.3 °C 3.6 °C 1025.6 hPa WNW 6 km/h 11.3 km/h 40 % 0 mm
14:06 17.3 °C 3.9 °C 1025.3 hPa NW 7.6 km/h 13 km/h 41 % 0 mm
14:11 17.3 °C 4.3 °C 1025.3 hPa NW 4.3 km/h 9.3 km/h 42 % 0 mm
14:16 17.3 °C 3.2 °C 1025.3 hPa WNW 7.7 km/h 11.1 km/h 39 % 0 mm
14:21 17.2 °C 3.8 °C 1025.3 hPa NW 4.2 km/h 5.6 km/h 41 % 0 mm
14:27 17.2 °C 2.8 °C 1025.3 hPa North 6.4 km/h 9.3 km/h 38 % 0 mm
14:32 17.3 °C 4.6 °C 1025.3 hPa WNW 4.5 km/h 7.4 km/h 43 % 0 mm
14:37 17.4 °C 3.3 °C 1025.3 hPa West 6.1 km/h 11.1 km/h 39 % 0 mm
14:42 17.4 °C 2.9 °C 1025.3 hPa West 10.8 km/h 13 km/h 38 % 0 mm
14:47 17.3 °C 2.4 °C 1025.3 hPa North 5.3 km/h 9.3 km/h 37 % 0 mm
14:52 17.3 °C 4.2 °C 1025.3 hPa North 5 km/h 8 km/h 42 % 0 mm
14:57 17.3 °C 3.6 °C 1025.3 hPa NW 5.5 km/h 8 km/h 40 % 0 mm
15:02 17.3 °C 3.6 °C 1025.3 hPa NW 5.1 km/h 9.7 km/h 40 % 0 mm
15:07 17.3 °C 3.6 °C 1025.3 hPa NW 3.9 km/h 5.6 km/h 40 % 0 mm
15:12 17.4 °C 3.3 °C 1025.3 hPa NW 5.5 km/h 6.4 km/h 39 % 0 mm
15:17 17.6 °C 4.2 °C 1025.3 hPa NW 2.9 km/h 8 km/h 41 % 0 mm
15:22 17.7 °C 4.3 °C 1025.3 hPa NNW 1.6 km/h 9.7 km/h 41 % 0 mm
15:27 17.8 °C 3.6 °C 1024.9 hPa NNW 4.8 km/h 9.7 km/h 39 % 0 mm
15:32 17.7 °C 3.2 °C 1024.9 hPa NW 4.8 km/h 11.3 km/h 38 % 0 mm
15:37 17.7 °C 3.9 °C 1024.6 hPa NW 3.2 km/h 8 km/h 40 % 0 mm
15:42 17.7 °C 4.3 °C 1024.6 hPa NNW 3.2 km/h 9.7 km/h 41 % 0 mm
15:47 17.7 °C 3.2 °C 1024.6 hPa NW 3.2 km/h 9.7 km/h 38 % 0 mm
15:52 17.7 °C 4.2 °C 1024.6 hPa WNW 1.6 km/h 8 km/h 41 % 0 mm
15:57 17.7 °C 3.6 °C 1024.6 hPa NW 5.3 km/h 9.7 km/h 39 % 0 mm
16:02 17.7 °C 3.6 °C 1024.6 hPa NW 3.2 km/h 11.3 km/h 39 % 0 mm
16:07 17.7 °C 3.2 °C 1024.6 hPa NW 5 km/h 7.4 km/h 38 % 0 mm
16:12 17.6 °C 2.7 °C 1024.3 hPa NNW 3.2 km/h 11.3 km/h 37 % 0 mm
16:17 17.5 °C 3.4 °C 1024.3 hPa NNW 3.2 km/h 8 km/h 39 % 0 mm
16:22 17.4 °C 3.7 °C 1024.3 hPa NNW 9.7 km/h 14.5 km/h 40 % 0 mm
16:27 17.4 °C 4.3 °C 1024.3 hPa NW 4.8 km/h 11.3 km/h 42 % 0 mm
16:32 17.3 °C 4.2 °C 1024.3 hPa WNW 3.2 km/h 11.3 km/h 42 % 0 mm
16:37 17.2 °C 3.1 °C 1024.3 hPa NW 8 km/h 9.7 km/h 39 % 0 mm
16:42 17.3 °C 3.2 °C 1024.3 hPa NW 4.8 km/h 12.9 km/h 39 % 0 mm
16:47 17.3 °C 3.2 °C 1024.3 hPa NW 4.8 km/h 14.5 km/h 39 % 0 mm
16:52 17.4 °C 2.6 °C 1024.6 hPa NW 4.8 km/h 12.9 km/h 37 % 0 mm
16:54 17.4 °C 2.9 °C 1024.3 hPa NW 4.7 km/h 9.3 km/h 38 % 0 mm
16:59 17.3 °C 2.4 °C 1024.6 hPa WNW 2.9 km/h 5.6 km/h 37 % 0 mm
17:04 17.1 °C 2.6 °C 1024.3 hPa WNW 5.3 km/h 8 km/h 38 % 0 mm
17:09 16.8 °C 3.2 °C 1024.3 hPa NNW 1 km/h 5.6 km/h 40 % 0 mm
17:14 16.7 °C 2.7 °C 1024.6 hPa NW 5 km/h 7.4 km/h 39 % 0 mm
17:19 16.7 °C 3.3 °C 1024.6 hPa NNW 0.5 km/h 5.6 km/h 41 % 0 mm
17:24 16.6 °C 2.9 °C 1024.6 hPa WNW 3.4 km/h 6.4 km/h 40 % 0 mm
17:29 16.6 °C 2.9 °C 1024.6 hPa SW 5 km/h 7.4 km/h 40 % 0 mm
17:34 16.4 °C 3.5 °C 1024.6 hPa WNW 2.7 km/h 4.8 km/h 42 % 0 mm
17:39 16.3 °C 2.7 °C 1024.6 hPa WNW 2.1 km/h 8 km/h 40 % 0 mm
17:44 16.2 °C 2.9 °C 1024.6 hPa West 1.9 km/h 4.8 km/h 41 % 0 mm
17:49 16 °C 3.4 °C 1024.6 hPa West 0.6 km/h 3.2 km/h 43 % 0 mm
17:54 15.9 °C 3.7 °C 1024.6 hPa WNW 1.8 km/h 3.7 km/h 44 % 0 mm
17:59 15.8 °C 3.6 °C 1024.6 hPa North 0.8 km/h 3.7 km/h 44 % 0 mm
18:04 15.7 °C 3.8 °C 1024.6 hPa NW 1 km/h 5.6 km/h 45 % 0 mm
18:09 15.6 °C 3.9 °C 1024.6 hPa NW 1.1 km/h 3.7 km/h 46 % 0 mm
18:14 15.5 °C 3.6 °C 1024.6 hPa North 3.7 km/h 9.3 km/h 45 % 0 mm
18:19 15.3 °C 3.4 °C 1024.6 hPa North 4 km/h 11.3 km/h 45 % 0 mm
18:24 15.1 °C 2.9 °C 1024.6 hPa North 6 km/h 7.4 km/h 44 % 0 mm
18:29 14.9 °C 3.1 °C 1024.6 hPa NNE 7.2 km/h 9.3 km/h 45 % 0 mm
18:34 14.8 °C 2.7 °C 1024.6 hPa NNW 6.9 km/h 13 km/h 44 % 0 mm
18:39 14.7 °C 3.2 °C 1024.6 hPa NNE 3.5 km/h 11.3 km/h 46 % 0 mm
18:44 14.7 °C 3.2 °C 1024.6 hPa NNW 3.2 km/h 5.6 km/h 46 % 0 mm
18:49 14.6 °C 3.1 °C 1024.9 hPa NNW 6.3 km/h 9.7 km/h 46 % 0 mm
18:54 14.5 °C 3.9 °C 1024.9 hPa NE 3.4 km/h 5.6 km/h 49 % 0 mm
18:59 14.3 °C 5.2 °C 1024.9 hPa NNE 4.7 km/h 7.4 km/h 54 % 0 mm
19:05 14.2 °C 5.3 °C 1024.9 hPa NNE 0.5 km/h 3.7 km/h 55 % 0 mm
19:10 14.1 °C 5.4 °C 1024.9 hPa ENE 2.7 km/h 5.6 km/h 56 % 0 mm
19:15 13.8 °C 5.4 °C 1024.9 hPa ENE 2.4 km/h 3.7 km/h 57 % 0 mm
19:20 13.6 °C 5.7 °C 1025.3 hPa Calm     59 % 0 mm
19:25 13.5 °C 5.6 °C 1025.3 hPa ENE 0.6 km/h 3.2 km/h 59 % 0 mm
19:30 13.3 °C 5.5 °C 1025.3 hPa Calm     59 % 0 mm
19:35 13.2 °C 5.1 °C 1025.3 hPa Calm   1.9 km/h 58 % 0 mm
19:40 13.1 °C 5 °C 1025.6 hPa Calm     58 % 0 mm
19:45 12.9 °C 4.9 °C 1025.6 hPa North 1.4 km/h 6.4 km/h 58 % 0 mm
19:50 12.8 °C 4.8 °C 1025.6 hPa NNE 4.7 km/h 7.4 km/h 58 % 0 mm
19:55 12.7 °C 4.7 °C 1025.6 hPa NNE 3.9 km/h 8 km/h 58 % 0 mm
20:00 12.6 °C 4.1 °C 1025.6 hPa North 6 km/h 7.4 km/h 56 % 0 mm
20:05 12.6 °C 3.7 °C 1025.6 hPa NNE 4.7 km/h 5.6 km/h 55 % 0 mm
20:10 12.5 °C 3.9 °C 1026 hPa NNE 2.4 km/h 5.6 km/h 56 % 0 mm
20:15 12.5 °C 4.2 °C 1026 hPa NNE 3.5 km/h 7.4 km/h 57 % 0 mm
20:20 12.4 °C 4.4 °C 1026 hPa NNE 4.5 km/h 9.3 km/h 58 % 0 mm
20:25 12.4 °C 4.7 °C 1026 hPa NNE 2.7 km/h 5.6 km/h 59 % 0 mm
20:30 12.4 °C 4.8 °C 1026 hPa NNE 3.1 km/h 5.6 km/h 60 % 0 mm
20:35 12.3 °C 5 °C 1026.3 hPa NNE 0.3 km/h 5.6 km/h 61 % 0 mm
20:40 12.3 °C 4.9 °C 1026.3 hPa NE 1 km/h 1.6 km/h 61 % 0 mm
20:45 12.2 °C 5.1 °C 1026.3 hPa NNE 5.3 km/h 9.3 km/h 62 % 0 mm
20:50 12 °C 4.4 °C 1026.3 hPa NNE 7.4 km/h 11.1 km/h 60 % 0 mm
20:55 11.9 °C 3.6 °C 1026.3 hPa NNE 6.6 km/h 18.5 km/h 57 % 0 mm
21:00 11.8 °C 3.6 °C 1026.3 hPa NNE 8 km/h 14.8 km/h 57 % 0 mm
21:05 11.8 °C 3.8 °C 1026.3 hPa North 8.9 km/h 11.3 km/h 58 % 0 mm
21:10 11.8 °C 3.6 °C 1026.3 hPa North 8.7 km/h 11.1 km/h 57 % 0 mm
21:15 11.8 °C 3 °C 1026.3 hPa North 11.1 km/h 16.7 km/h 55 % 0 mm
21:20 11.8 °C 2.8 °C 1026.3 hPa NNE 7.1 km/h 13 km/h 54 % 0 mm
21:25 11.9 °C 3.1 °C 1026.3 hPa North 8.2 km/h 9.3 km/h 55 % 0 mm
21:30 11.9 °C 3.4 °C 1026.3 hPa NNE 8.9 km/h 11.1 km/h 56 % 0 mm
21:36 11.8 °C 3.6 °C 1026.3 hPa NE 7.2 km/h 11.1 km/h 57 % 0 mm
21:41 11.8 °C 4 °C 1026.3 hPa NNE 6.3 km/h 8 km/h 59 % 0 mm
21:46 11.7 °C 4.2 °C 1026.3 hPa NNE 0.6 km/h 1.9 km/h 60 % 0 mm
21:51 11.7 °C 4.8 °C 1026.3 hPa NNE 0.6 km/h 3.2 km/h 63 % 0 mm
21:56 11.6 °C 4.7 °C 1026.3 hPa NNE 3.1 km/h 3.7 km/h 63 % 0 mm
22:01 11.4 °C 4.6 °C 1026.3 hPa NNE 0.2 km/h 3.7 km/h 63 % 0 mm
22:06 11.3 °C 4.5 °C 1026.3 hPa Calm     63 % 0 mm
22:11 11.2 °C 4.6 °C 1026.3 hPa Calm     64 % 0 mm
22:16 11.1 °C 4.3 °C 1026.3 hPa NNE 0.6 km/h 1.9 km/h 63 % 0 mm
22:21 10.9 °C 4.1 °C 1026.6 hPa Calm     63 % 0 mm
22:26 10.8 °C 4 °C 1026.6 hPa Calm     63 % 0 mm
22:31 10.7 °C 3.9 °C 1026.6 hPa Calm     63 % 0 mm
22:36 10.6 °C 4 °C 1026.6 hPa Calm     64 % 0 mm
22:41 10.4 °C 4.2 °C 1026.6 hPa Calm     65 % 0 mm
22:46 10.3 °C 3.8 °C 1026.6 hPa Calm     64 % 0 mm
22:51 10.2 °C 3.9 °C 1026.6 hPa Calm     65 % 0 mm
22:56 10.2 °C 3.9 °C 1026.6 hPa Calm     65 % 0 mm
23:01 10.1 °C 3.6 °C 1026.6 hPa ENE 0.2 km/h 1.9 km/h 64 % 0 mm
23:06 10 °C 3.1 °C 1026.6 hPa Calm   3.7 km/h 62 % 0 mm
23:11 9.9 °C 3 °C 1026.6 hPa Calm     62 % 0 mm
23:16 9.9 °C 3.2 °C 1026.6 hPa Calm     63 % 0 mm
23:21 9.8 °C 3.3 °C 1026.6 hPa Calm     64 % 0 mm
23:26 9.8 °C 3.3 °C 1026.6 hPa Calm     64 % 0 mm
23:28 9.8 °C 3.3 °C 1027 hPa Calm     64 % 0 mm
23:33 9.7 °C 3.2 °C 1027 hPa Calm   1.6 km/h 64 % 0 mm
23:38 9.6 °C 2.8 °C 1027 hPa NE 0.2 km/h 1.9 km/h 63 % 0 mm
23:43 9.5 °C 2.3 °C 1027 hPa Calm   1.9 km/h 61 % 0 mm
23:48 9.4 °C 2.1 °C 1027 hPa Calm     60 % 0 mm
23:53 9.3 °C 1.9 °C 1027 hPa Calm     60 % 0 mm
23:58 9.3 °C 1.9 °C 1027.3 hPa Calm     60 % 0 mm
Crab Meadow Weather
Compliments of Weather Underground - 3 mb

Script developed by  Jim McMurry - jmcmurry@mwt.net Adapted for the template by  Wim van der Kuil - Leuven-Template.eu

Astronomy: Mercury can get as hot as 800 degrees and can be as cold as 300 degrees below zero.